Time;durP1;ratioP1;P1;durP2;ratioP2;P2;SDS_P1;SDS_P2;PMS_P1;PMS_P2;Temp;Humidity;BMP_temperature;BMP_pressure;BME280_temperature;BME280_humidity;BME280_pressure;Samples;Min_cycle;Max_cycle;Signal;HPM_P1;HPM_P2
2020/12/04 00:02:18;;;;;;;49.77;19.23;;;0.40;99.90;;;;;;4990793;28;20058;-69
2020/12/04 00:04:44;;;;;;;42.63;18.40;;;0.30;99.90;;;;;;4990150;28;20458;-68
2020/12/04 00:07:11;;;;;;;45.63;18.60;;;0.40;99.90;;;;;;4991181;28;20061;-67
2020/12/04 00:09:41;;;;;;;49.30;19.83;;;0.40;99.90;;;;;;4990423;28;20054;-69
2020/12/04 00:12:08;;;;;;;50.57;19.50;;;0.40;99.90;;;;;;4990302;28;20569;-69
2020/12/04 00:14:35;;;;;;;46.70;20.10;;;0.40;99.90;;;;;;4991128;28;20072;-67
2020/12/04 00:17:02;;;;;;;42.60;17.83;;;0.40;99.90;;;;;;4990422;28;20119;-68
2020/12/04 00:19:31;;;;;;;46.03;20.13;;;0.50;99.90;;;;;;4993547;28;20495;-68
2020/12/04 00:21:58;;;;;;;43.97;17.20;;;0.50;99.90;;;;;;4992185;28;20053;-67
2020/12/04 00:24:24;;;;;;;47.10;19.37;;;0.50;99.90;;;;;;4992968;28;20054;-68
2020/12/04 00:26:51;;;;;;;40.97;17.53;;;0.50;99.90;;;;;;4989702;28;20056;-68
2020/12/04 00:29:18;;;;;;;41.27;18.53;;;0.50;99.90;;;;;;4990814;28;20050;-67
2020/12/04 00:31:44;;;;;;;38.20;16.73;;;0.50;99.90;;;;;;4990456;28;20050;-68
2020/12/04 00:34:12;;;;;;;39.70;16.70;;;0.50;99.90;;;;;;4989914;28;20517;-67
2020/12/04 00:36:38;;;;;;;44.70;17.60;;;0.50;99.90;;;;;;4990163;28;20058;-68
2020/12/04 00:39:05;;;;;;;41.23;16.77;;;0.40;99.90;;;;;;4989467;28;20417;-67
2020/12/04 00:41:35;;;;;;;41.23;15.03;;;0.50;99.90;;;;;;4988903;28;20047;-67
2020/12/04 00:44:02;;;;;;;38.33;15.50;;;0.50;99.90;;;;;;4980326;28;20495;-67
2020/12/04 00:46:28;;;;;;;40.13;16.77;;;0.50;99.90;;;;;;4994006;28;20053;-68
2020/12/04 00:48:55;;;;;;;39.63;15.93;;;0.40;99.90;;;;;;4991136;28;20054;-68
2020/12/04 00:51:29;;;;;;;46.83;17.47;;;0.40;99.90;;;;;;4988447;28;20566;-67
2020/12/04 00:53:55;;;;;;;40.53;16.60;;;0.40;99.90;;;;;;4987845;28;20178;-67
2020/12/04 00:56:22;;;;;;;40.17;15.70;;;0.40;99.90;;;;;;4988786;28;20057;-67
2020/12/04 00:58:49;;;;;;;46.00;17.27;;;0.50;99.90;;;;;;4989624;28;20065;-69
2020/12/04 01:01:16;;;;;;;35.70;14.70;;;0.60;99.90;;;;;;4988393;28;20053;-67
2020/12/04 01:03:43;;;;;;;42.37;17.17;;;0.50;99.90;;;;;;4989852;28;20054;-69
2020/12/04 01:06:12;;;;;;;41.37;16.43;;;0.40;99.90;;;;;;4989181;28;20050;-70
2020/12/04 01:08:41;;;;;;;38.70;15.63;;;0.50;99.90;;;;;;4985277;28;20058;-69
2020/12/04 01:11:08;;;;;;;40.30;16.77;;;0.50;99.90;;;;;;4989313;28;20065;-67
2020/12/04 01:13:35;;;;;;;39.73;15.23;;;0.50;99.90;;;;;;4988832;28;20051;-67
2020/12/04 01:16:02;;;;;;;41.53;17.30;;;0.40;99.90;;;;;;4989545;28;20042;-73
2020/12/04 01:18:29;;;;;;;42.63;16.37;;;0.50;99.90;;;;;;4988753;28;20055;-67
2020/12/04 01:20:56;;;;;;;39.03;15.67;;;0.50;99.90;;;;;;4988638;28;20054;-67
2020/12/04 01:23:23;;;;;;;40.63;16.07;;;0.50;99.90;;;;;;4989209;28;20054;-69
2020/12/04 01:25:50;;;;;;;35.63;14.53;;;0.50;99.90;;;;;;4989321;28;20527;-67
2020/12/04 01:28:17;;;;;;;43.70;16.80;;;0.60;99.90;;;;;;4989161;28;20061;-67
2020/12/04 01:30:43;;;;;;;40.27;15.70;;;0.60;99.90;;;;;;4969336;28;20051;-69
2020/12/04 01:33:10;;;;;;;37.40;13.83;;;0.60;99.90;;;;;;4970449;28;20058;-67
2020/12/04 01:35:37;;;;;;;41.00;16.00;;;0.60;99.90;;;;;;4972648;28;20054;-68
2020/12/04 01:38:03;;;;;;;42.50;16.53;;;0.60;99.90;;;;;;4990064;28;20050;-67
2020/12/04 01:40:32;;;;;;;36.40;16.07;;;0.60;99.90;;;;;;4989243;28;20057;-68
2020/12/04 01:43:00;;;;;;;37.10;15.63;;;0.70;99.90;;;;;;4989041;28;20069;-69
2020/12/04 01:45:27;;;;;;;35.77;14.93;;;0.80;99.90;;;;;;4989710;28;20495;-68
2020/12/04 01:47:54;;;;;;;36.50;15.17;;;0.80;99.90;;;;;;4988853;28;20042;-65
2020/12/04 01:50:21;;;;;;;37.27;14.90;;;0.70;99.90;;;;;;4988914;28;20054;-65
2020/12/04 01:52:49;;;;;;;41.90;15.50;;;0.60;99.90;;;;;;4989029;28;20073;-65
2020/12/04 01:55:17;;;;;;;41.87;16.73;;;0.80;99.90;;;;;;4989406;28;20503;-65
2020/12/04 01:57:44;;;;;;;37.77;15.07;;;0.70;99.90;;;;;;4989785;28;20142;-65
2020/12/04 02:00:12;;;;;;;39.93;14.77;;;0.70;99.90;;;;;;4989545;28;20050;-65
2020/12/04 02:02:42;;;;;;;42.77;15.50;;;0.70;99.90;;;;;;4993060;28;20050;-65
2020/12/04 02:05:09;;;;;;;37.17;15.30;;;0.70;99.90;;;;;;4992285;28;20471;-64
2020/12/04 02:07:43;;;;;;;40.13;15.70;;;0.70;99.90;;;;;;4993679;28;20136;-65
2020/12/04 02:10:18;;;;;;;46.40;16.87;;;0.70;99.90;;;;;;4991788;28;20076;-65
2020/12/04 02:12:46;;;;;;;38.43;15.63;;;0.70;99.90;;;;;;4993198;28;20104;-65
2020/12/04 02:15:15;;;;;;;42.00;15.93;;;0.70;99.90;;;;;;4993119;28;20064;-65
2020/12/04 02:17:44;;;;;;;38.63;14.93;;;0.80;99.90;;;;;;4992154;28;20525;-65
2020/12/04 02:20:12;;;;;;;41.70;16.37;;;0.70;99.90;;;;;;4992870;28;20050;-65
2020/12/04 02:22:40;;;;;;;42.43;16.60;;;0.70;99.90;;;;;;4992111;28;20062;-68
2020/12/04 02:25:09;;;;;;;48.20;17.40;;;0.70;99.90;;;;;;4993251;28;20050;-67
2020/12/04 02:27:45;;;;;;;42.43;18.03;;;0.70;99.90;;;;;;4992310;28;20065;-68
2020/12/04 02:30:17;;;;;;;34.77;15.27;;;0.70;99.90;;;;;;4992574;28;20430;-68
2020/12/04 02:32:44;;;;;;;47.27;17.60;;;0.80;99.90;;;;;;4993097;28;20412;-67
2020/12/04 02:35:10;;;;;;;35.60;14.60;;;0.80;99.90;;;;;;4992169;28;20047;-68
2020/12/04 02:37:37;;;;;;;38.13;16.00;;;0.80;99.90;;;;;;4973721;28;20542;-68
2020/12/04 02:40:06;;;;;;;33.83;15.23;;;0.80;99.90;;;;;;4972617;28;20054;-67
2020/12/04 02:42:32;;;;;;;41.63;16.03;;;0.80;99.90;;;;;;4973426;28;20130;-68
2020/12/04 02:45:00;;;;;;;43.63;16.97;;;0.80;99.90;;;;;;4972470;28;20061;-64
2020/12/04 02:47:27;;;;;;;42.53;15.57;;;0.80;99.90;;;;;;4976126;28;20043;-65
2020/12/04 02:49:53;;;;;;;39.93;16.73;;;0.90;99.90;;;;;;4976316;28;20459;-65
2020/12/04 02:52:22;;;;;;;39.80;15.80;;;0.90;99.90;;;;;;4972284;28;20511;-65
2020/12/04 02:54:49;;;;;;;35.43;15.17;;;0.90;99.90;;;;;;4972810;28;20503;-67
2020/12/04 02:57:16;;;;;;;38.57;15.03;;;0.90;99.90;;;;;;4972293;28;20051;-64
2020/12/04 02:59:43;;;;;;;33.73;14.87;;;0.90;99.90;;;;;;4972977;28;20051;-65
2020/12/04 03:02:10;;;;;;;36.77;14.90;;;0.90;99.90;;;;;;4971696;28;20129;-65
2020/12/04 03:04:38;;;;;;;36.60;14.90;;;0.90;99.90;;;;;;4972404;28;20074;-65
2020/12/04 03:07:05;;;;;;;36.93;14.23;;;0.90;99.90;;;;;;4988020;28;20061;-65
2020/12/04 03:09:32;;;;;;;34.17;15.33;;;0.90;99.90;;;;;;4991323;28;20137;-64
2020/12/04 03:11:59;;;;;;;40.93;15.50;;;0.90;99.90;;;;;;4990765;28;20086;-67
2020/12/04 03:14:27;;;;;;;40.67;15.80;;;0.90;99.90;;;;;;4991266;28;20097;-67
2020/12/04 03:16:54;;;;;;;37.03;16.67;;;0.90;99.90;;;;;;4992092;28;20051;-70
2020/12/04 03:19:21;;;;;;;38.03;15.33;;;0.80;99.90;;;;;;4991587;28;20057;-67
2020/12/04 03:21:47;;;;;;;36.70;14.90;;;0.80;99.90;;;;;;4990951;28;20057;-67
2020/12/04 03:24:14;;;;;;;39.07;15.77;;;0.70;99.90;;;;;;4991845;28;20050;-69
2020/12/04 03:26:41;;;;;;;40.97;16.30;;;0.80;99.90;;;;;;4991127;28;20487;-67
2020/12/04 03:29:08;;;;;;;39.10;15.87;;;0.80;99.90;;;;;;4992052;28;20058;-65
2020/12/04 03:31:38;;;;;;;41.53;16.37;;;0.80;99.90;;;;;;4990425;28;20046;-68
2020/12/04 03:34:05;;;;;;;40.00;16.37;;;0.80;99.90;;;;;;4991820;28;20062;-67
2020/12/04 03:36:32;;;;;;;41.43;16.10;;;0.90;99.90;;;;;;4991629;28;20434;-68
2020/12/04 03:38:58;;;;;;;42.27;17.30;;;0.90;99.90;;;;;;4990241;28;20046;-69
2020/12/04 03:41:25;;;;;;;45.70;17.63;;;1.00;99.90;;;;;;4991101;28;20068;-68
2020/12/04 03:43:52;;;;;;;43.43;17.13;;;1.00;99.90;;;;;;4990913;28;20062;-67
2020/12/04 03:46:18;;;;;;;39.43;15.87;;;1.00;99.90;;;;;;4991604;28;20505;-70
2020/12/04 03:48:46;;;;;;;37.67;15.53;;;0.90;99.90;;;;;;4990387;28;20057;-68
2020/12/04 03:51:13;;;;;;;40.33;16.87;;;1.00;99.90;;;;;;4991054;28;20050;-69
2020/12/04 03:53:39;;;;;;;41.03;17.33;;;1.00;99.90;;;;;;4991809;28;20062;-67
2020/12/04 03:56:06;;;;;;;42.63;18.47;;;1.10;99.90;;;;;;4992674;28;20058;-67
2020/12/04 03:58:33;;;;;;;38.30;16.37;;;1.00;99.90;;;;;;4994819;28;20051;-69
2020/12/04 04:01:00;;;;;;;35.80;15.27;;;1.00;99.90;;;;;;4990171;28;20101;-68
2020/12/04 04:03:26;;;;;;;41.47;17.10;;;0.90;99.90;;;;;;4989793;28;20058;-70
2020/12/04 04:05:54;;;;;;;40.00;16.30;;;0.90;99.90;;;;;;4990984;28;20047;-69
2020/12/04 04:08:21;;;;;;;35.53;15.83;;;1.00;99.90;;;;;;4990391;28;20061;-65
2020/12/04 04:10:47;;;;;;;37.80;15.43;;;1.10;99.90;;;;;;4990622;28;20047;-65
2020/12/04 04:13:14;;;;;;;41.30;15.83;;;1.20;99.90;;;;;;4990136;28;20495;-65
2020/12/04 04:15:40;;;;;;;34.03;14.03;;;1.10;99.90;;;;;;4991111;28;20071;-65
2020/12/04 04:18:07;;;;;;;41.30;15.23;;;1.10;99.90;;;;;;4989919;28;20080;-69
2020/12/04 04:20:34;;;;;;;34.10;14.73;;;1.30;99.90;;;;;;4990265;28;20500;-67
2020/12/04 04:23:02;;;;;;;31.60;14.83;;;1.10;99.90;;;;;;4990527;28;20398;-67
2020/12/04 04:25:29;;;;;;;32.00;14.87;;;1.20;99.90;;;;;;4990049;28;20054;-67
2020/12/04 04:27:55;;;;;;;32.10;14.27;;;1.10;99.90;;;;;;4990919;28;20058;-70
2020/12/04 04:30:22;;;;;;;35.03;14.20;;;1.30;99.90;;;;;;4989542;28;20057;-68
2020/12/04 04:32:49;;;;;;;33.43;13.83;;;1.20;99.90;;;;;;4990711;28;20150;-68
2020/12/04 04:35:15;;;;;;;32.50;13.43;;;1.40;99.90;;;;;;4989779;28;20054;-70
2020/12/04 04:37:43;;;;;;;30.97;13.33;;;1.40;99.90;;;;;;4972010;28;20518;-68
2020/12/04 04:40:11;;;;;;;35.33;14.63;;;1.40;99.90;;;;;;4980153;28;20054;-71
2020/12/04 04:42:38;;;;;;;32.87;14.83;;;1.30;99.90;;;;;;4989916;28;20050;-69
2020/12/04 04:45:05;;;;;;;37.30;16.20;;;1.30;99.90;;;;;;4990301;28;20522;-68
2020/12/04 04:47:36;;;;;;;36.93;14.23;;;1.20;99.90;;;;;;4989887;28;20049;-70
2020/12/04 04:50:03;;;;;;;32.50;14.07;;;1.20;99.90;;;;;;4994259;28;20046;-68
2020/12/04 04:52:37;;;;;;;39.13;15.83;;;1.20;99.90;;;;;;4991443;28;20062;-70
2020/12/04 04:55:04;;;;;;;39.97;16.10;;;1.20;99.90;;;;;;4990293;28;20073;-69
2020/12/04 04:57:32;;;;;;;40.97;15.20;;;1.10;99.90;;;;;;4990242;28;20051;-67
2020/12/04 04:59:59;;;;;;;44.90;15.33;;;1.40;99.90;;;;;;4989649;28;20480;-67
2020/12/04 05:02:25;;;;;;;36.87;15.57;;;1.40;99.90;;;;;;4989972;28;20568;-68
2020/12/04 05:04:53;;;;;;;39.30;14.47;;;1.50;99.90;;;;;;4989126;28;20059;-69
2020/12/04 05:07:26;;;;;;;33.53;13.73;;;1.40;99.90;;;;;;4990108;28;20423;-69
2020/12/04 05:09:53;;;;;;;32.60;13.80;;;1.60;99.90;;;;;;4989715;28;20101;-69
2020/12/04 05:12:20;;;;;;;36.33;14.23;;;1.40;99.90;;;;;;4989200;28;20065;-65
2020/12/04 05:14:48;;;;;;;33.93;13.77;;;1.50;99.90;;;;;;4990200;28;20050;-65
2020/12/04 05:17:14;;;;;;;34.80;14.67;;;1.50;99.90;;;;;;4989327;28;20050;-65
2020/12/04 05:19:42;;;;;;;31.83;13.33;;;1.40;99.90;;;;;;4990252;28;20145;-65
2020/12/04 05:22:11;;;;;;;34.50;12.73;;;1.30;99.90;;;;;;4988847;28;20435;-65
2020/12/04 05:24:38;;;;;;;33.67;12.83;;;1.30;99.90;;;;;;4990055;28;20467;-65
2020/12/04 05:27:24;;;;;;;32.07;13.70;;;1.40;99.90;;;;;;4989756;28;20492;-65
2020/12/04 05:29:53;;;;;;;34.95;14.15;;;1.30;99.90;;;;;;4990382;28;20050;-65
2020/12/04 05:32:20;;;;;;;34.03;13.83;;;1.30;99.90;;;;;;4989647;28;20046;-65
2020/12/04 05:34:50;;;;;;;31.27;13.10;;;1.30;99.90;;;;;;4989820;28;20051;-65
2020/12/04 05:37:19;;;;;;;34.27;13.43;;;1.40;99.90;;;;;;4993377;28;20094;-70
2020/12/04 05:39:47;;;;;;;36.07;14.23;;;1.20;99.90;;;;;;4992907;28;20053;-68
2020/12/04 05:42:33;;;;;;;36.77;15.87;;;1.10;99.90;;;;;;4993420;28;20536;-68
2020/12/04 05:45:01;;;;;;;34.60;14.87;;;1.00;99.90;;;;;;4994017;28;20058;-68
2020/12/04 05:47:36;;;;;;;29.07;13.03;;;1.00;99.90;;;;;;4994408;28;20050;-65
2020/12/04 05:50:05;;;;;;;34.53;15.13;;;1.00;99.90;;;;;;4994525;28;20051;-65
2020/12/04 05:52:33;;;;;;;34.63;14.40;;;1.00;99.90;;;;;;4993589;28;20109;-65
2020/12/04 05:55:01;;;;;;;36.23;15.37;;;1.00;99.90;;;;;;4994443;28;20494;-66
2020/12/04 05:57:29;;;;;;;36.83;15.20;;;1.10;99.90;;;;;;4985652;28;20049;-65
2020/12/04 05:59:56;;;;;;;33.33;14.60;;;1.10;99.90;;;;;;4994271;28;20050;-65
2020/12/04 06:02:24;;;;;;;35.90;14.30;;;1.00;99.90;;;;;;4993047;28;20042;-65
2020/12/04 06:04:53;;;;;;;43.57;15.63;;;1.10;99.90;;;;;;4973568;28;20054;-68
2020/12/04 06:07:26;;;;;;;33.43;14.63;;;1.10;99.90;;;;;;4991314;28;20422;-64
2020/12/04 06:09:56;;;;;;;32.97;14.07;;;1.10;99.90;;;;;;4993521;28;20061;-65
2020/12/04 06:12:22;;;;;;;32.80;13.63;;;1.00;99.90;;;;;;4994003;28;20054;-67
2020/12/04 06:14:49;;;;;;;34.27;15.70;;;1.00;99.90;;;;;;4992560;28;20061;-67
2020/12/04 06:17:16;;;;;;;34.93;14.47;;;1.00;99.90;;;;;;4993833;28;20055;-65
2020/12/04 06:19:44;;;;;;;35.70;14.07;;;1.00;99.90;;;;;;4992647;28;20153;-67
2020/12/04 06:22:13;;;;;;;31.20;13.83;;;1.40;99.90;;;;;;4993088;28;20058;-68
2020/12/04 06:25:03;;;;;;;37.47;15.33;;;1.30;99.90;;;;;;4993602;28;20057;-64
2020/12/04 06:27:43;;;;;;;40.57;14.10;;;1.10;99.90;;;;;;4993667;28;20061;-68
2020/12/04 06:30:11;;;;;;;33.90;14.13;;;1.20;99.90;;;;;;4994676;28;20503;-67
2020/12/04 06:32:41;;;;;;;37.97;15.43;;;1.10;99.90;;;;;;4993135;28;20061;-68
2020/12/04 06:35:10;;;;;;;37.00;14.47;;;1.00;99.90;;;;;;4993793;28;20573;-69
2020/12/04 06:37:38;;;;;;;35.93;13.70;;;1.00;99.90;;;;;;4973203;28;20077;-65
2020/12/04 06:40:24;;;;;;;35.93;14.03;;;0.90;99.90;;;;;;4974238;28;20056;-65
2020/12/04 06:42:52;;;;;;;33.27;13.40;;;0.90;99.90;;;;;;4973627;28;20153;-68
2020/12/04 06:45:19;;;;;;;34.93;14.87;;;0.80;99.90;;;;;;4973780;28;20089;-67
2020/12/04 06:48:09;;;;;;;31.00;13.43;;;0.90;99.90;;;;;;4970607;28;20055;-67
2020/12/04 06:50:41;;;;;;;30.00;13.00;;;0.80;99.90;;;;;;4972983;28;20146;-67
2020/12/04 06:53:10;;;;;;;32.43;13.57;;;0.70;99.90;;;;;;4976799;28;20050;-67
2020/12/04 06:55:37;;;;;;;31.03;13.50;;;0.80;99.90;;;;;;4973286;28;20500;-65
2020/12/04 06:58:04;;;;;;;30.97;13.00;;;0.90;99.90;;;;;;4974313;28;20051;-65
2020/12/04 07:00:31;;;;;;;36.07;14.00;;;0.90;99.90;;;;;;4972996;28;20522;-64
2020/12/04 07:02:59;;;;;;;35.07;15.43;;;0.80;99.90;;;;;;4973586;28;20492;-65
2020/12/04 07:05:27;;;;;;;34.43;14.60;;;0.80;99.90;;;;;;4975689;28;20047;-65
2020/12/04 07:08:03;;;;;;;33.70;13.47;;;0.70;99.90;;;;;;4992434;28;20238;-67
2020/12/04 07:10:30;;;;;;;39.17;14.90;;;0.70;99.90;;;;;;4992925;28;20061;-65
2020/12/04 07:13:01;;;;;;;37.57;15.93;;;0.50;99.90;;;;;;4992421;28;20097;-65
2020/12/04 07:15:28;;;;;;;35.87;16.10;;;0.50;99.90;;;;;;4994557;28;20058;-68
2020/12/04 07:17:56;;;;;;;31.20;15.00;;;0.60;99.90;;;;;;4995673;28;20104;-65
2020/12/04 07:20:31;;;;;;;40.23;16.57;;;0.50;99.90;;;;;;4994645;28;20065;-64
2020/12/04 07:22:58;;;;;;;39.27;15.67;;;0.60;99.90;;;;;;4995229;28;20053;-65
2020/12/04 07:25:29;;;;;;;45.73;17.53;;;0.50;99.90;;;;;;4994418;28;20148;-65
2020/12/04 07:27:58;;;;;;;42.73;15.90;;;0.50;99.90;;;;;;4995833;28;20057;-65
2020/12/04 07:30:25;;;;;;;41.17;16.60;;;0.50;99.90;;;;;;4994825;28;20081;-65
2020/12/04 07:32:54;;;;;;;40.07;16.67;;;0.50;99.90;;;;;;4995513;28;20418;-65
2020/12/04 07:35:21;;;;;;;44.40;16.07;;;0.40;99.90;;;;;;4996464;28;20058;-65
2020/12/04 07:37:48;;;;;;;43.30;18.13;;;0.50;99.90;;;;;;4996721;28;20501;-65
2020/12/04 07:40:16;;;;;;;43.07;17.63;;;0.50;99.90;;;;;;4993756;28;20057;-65
2020/12/04 07:42:44;;;;;;;33.40;14.10;;;0.60;99.90;;;;;;4992436;28;20446;-65
2020/12/04 07:45:15;;;;;;;36.83;15.27;;;0.80;99.90;;;;;;4992695;28;20113;-65
2020/12/04 07:47:42;;;;;;;43.00;16.93;;;0.90;99.90;;;;;;4992062;28;20105;-65
2020/12/04 07:50:11;;;;;;;33.10;14.20;;;0.90;99.90;;;;;;4992446;28;20050;-65
2020/12/04 07:52:50;;;;;;;34.23;13.47;;;1.00;99.90;;;;;;4992206;28;20475;-65
2020/12/04 07:55:18;;;;;;;34.93;13.70;;;1.10;99.90;;;;;;4992677;28;20056;-65
2020/12/04 07:57:54;;;;;;;54.73;16.40;;;1.20;99.90;;;;;;4991563;28;20054;-65
2020/12/04 08:00:20;;;;;;;46.60;19.97;;;1.30;99.90;;;;;;4991957;28;20507;-65
2020/12/04 08:02:47;;;;;;;32.50;14.13;;;1.40;99.90;;;;;;4992431;28;20138;-65
2020/12/04 08:05:20;;;;;;;32.93;14.10;;;1.50;99.90;;;;;;4991252;28;20058;-64
2020/12/04 08:07:51;;;;;;;43.27;14.33;;;1.50;99.90;;;;;;4993530;28;20054;-65
2020/12/04 08:10:18;;;;;;;36.47;13.33;;;1.60;99.90;;;;;;4994035;28;20054;-64
2020/12/04 08:12:49;;;;;;;30.17;13.70;;;1.60;99.90;;;;;;4992466;28;20077;-65
2020/12/04 08:15:18;;;;;;;33.03;13.17;;;1.70;99.90;;;;;;4991691;28;20062;-67
2020/12/04 08:17:45;;;;;;;26.03;12.10;;;1.90;99.90;;;;;;4995231;28;20060;-65
2020/12/04 08:20:16;;;;;;;31.80;13.10;;;1.80;99.90;;;;;;4997475;28;20069;-65
2020/12/04 08:22:48;;;;;;;34.13;14.00;;;1.90;99.90;;;;;;4996591;28;20081;-65
2020/12/04 08:25:22;;;;;;;32.37;13.57;;;2.00;99.90;;;;;;4996722;28;20050;-65
2020/12/04 08:27:50;;;;;;;29.60;13.50;;;2.10;99.90;;;;;;4996078;28;20418;-65
2020/12/04 08:30:18;;;;;;;28.97;12.17;;;2.10;99.90;;;;;;4996654;28;20112;-64
2020/12/04 08:32:47;;;;;;;31.40;14.67;;;2.30;99.90;;;;;;4995485;28;20050;-65
2020/12/04 08:35:16;;;;;;;33.20;13.07;;;2.30;99.90;;;;;;4995810;28;20051;-67
2020/12/04 08:37:43;;;;;;;25.33;12.50;;;2.40;99.90;;;;;;4995502;28;20054;-68
2020/12/04 08:40:25;;;;;;;28.37;13.20;;;2.40;99.90;;;;;;4989649;28;20050;-67
2020/12/04 08:42:55;;;;;;;32.40;13.43;;;2.40;99.90;;;;;;4972492;28;20058;-68
2020/12/04 08:45:28;;;;;;;34.50;14.53;;;2.50;99.90;;;;;;4972157;28;20054;-66
2020/12/04 08:48:06;;;;;;;35.67;13.10;;;2.60;99.90;;;;;;4972306;28;20054;-67
2020/12/04 08:50:39;;;;;;;31.90;12.47;;;2.70;99.90;;;;;;4971525;28;20495;-66
2020/12/04 08:53:09;;;;;;;27.37;12.47;;;2.70;99.90;;;;;;4972417;28;20055;-67
2020/12/04 08:55:36;;;;;;;26.93;12.20;;;2.70;99.90;;;;;;4973877;28;20496;-67
2020/12/04 08:58:04;;;;;;;28.67;12.07;;;2.60;99.90;;;;;;4973197;28;20063;-70
2020/12/04 09:00:32;;;;;;;31.47;13.30;;;2.60;99.90;;;;;;4971152;28;20070;-68
2020/12/04 09:02:59;;;;;;;33.07;12.80;;;2.70;99.90;;;;;;4972061;28;20050;-64
2020/12/04 09:05:26;;;;;;;30.43;13.60;;;2.70;99.90;;;;;;4973919;28;20459;-64
2020/12/04 09:07:53;;;;;;;29.47;12.27;;;2.90;99.90;;;;;;4991048;28;20051;-64
2020/12/04 09:10:20;;;;;;;30.20;12.43;;;2.80;99.90;;;;;;4992580;28;20136;-64
2020/12/04 09:12:48;;;;;;;26.70;11.93;;;2.80;99.90;;;;;;4995163;28;20050;-64
2020/12/04 09:15:17;;;;;;;29.20;13.50;;;2.90;99.90;;;;;;4995891;28;20133;-64
2020/12/04 09:17:45;;;;;;;27.53;11.93;;;2.90;99.90;;;;;;4995169;28;20141;-64
2020/12/04 09:20:13;;;;;;;27.60;11.50;;;2.80;99.90;;;;;;4994609;28;20510;-64
2020/12/04 09:22:40;;;;;;;30.47;13.07;;;2.80;99.90;;;;;;4995401;28;20061;-63
2020/12/04 09:25:09;;;;;;;33.70;14.03;;;2.90;99.90;;;;;;4994856;28;20058;-64
2020/12/04 09:27:36;;;;;;;25.23;11.90;;;3.10;99.90;;;;;;4995252;28;20050;-63
2020/12/04 09:30:03;;;;;;;33.03;13.37;;;3.10;99.90;;;;;;4994575;28;20054;-64
2020/12/04 09:32:31;;;;;;;27.03;13.00;;;3.50;99.90;;;;;;4994746;28;20470;-66
2020/12/04 09:34:59;;;;;;;27.07;11.57;;;4.00;99.90;;;;;;4994578;28;20062;-66
2020/12/04 09:37:27;;;;;;;31.57;12.73;;;4.60;99.90;;;;;;4995101;28;20062;-68
2020/12/04 09:39:55;;;;;;;26.93;11.43;;;5.30;99.90;;;;;;4995171;28;20434;-67
2020/12/04 09:42:24;;;;;;;29.30;13.63;;;5.60;99.90;;;;;;4994427;28;20058;-66
2020/12/04 09:44:52;;;;;;;27.07;12.53;;;5.60;99.90;;;;;;4995009;28;20141;-66
2020/12/04 09:47:20;;;;;;;28.50;12.57;;;5.20;99.90;;;;;;4995422;28;20154;-66
2020/12/04 09:49:48;;;;;;;26.63;11.82;;;5.70;99.90;;;;;;4995837;28;20139;-66
2020/12/04 09:52:16;;;;;;;27.08;11.75;;;6.20;99.90;;;;;;4995098;28;20054;-67
2020/12/04 09:54:45;;;;;;;26.58;12.75;;;6.90;99.90;;;;;;4994699;28;20124;-67
2020/12/04 09:57:14;;;;;;;27.00;11.88;;;8.10;99.90;;;;;;4994761;28;20054;-64
2020/12/04 09:59:41;;;;;;;24.27;12.90;;;9.00;99.90;;;;;;4993210;28;20137;-65
2020/12/04 10:02:09;;;;;;;26.33;13.50;;;9.50;99.90;;;;;;4994037;28;20129;-66
2020/12/04 10:04:37;;;;;;;28.98;13.55;;;9.60;99.90;;;;;;4993989;28;20078;-67
2020/12/04 10:07:04;;;;;;;28.98;13.90;;;8.70;99.90;;;;;;4994650;28;20461;-67
2020/12/04 10:09:31;;;;;;;28.33;13.68;;;7.90;99.90;;;;;;4993317;28;20503;-67
2020/12/04 10:11:58;;;;;;;27.45;13.45;;;7.50;99.90;;;;;;4994042;28;20057;-68
2020/12/04 10:14:25;;;;;;;24.30;12.57;;;7.00;99.90;;;;;;4994149;28;20561;-67
2020/12/04 10:16:52;;;;;;;25.73;12.68;;;6.60;99.90;;;;;;4993444;28;20046;-66
2020/12/04 10:19:20;;;;;;;26.73;12.07;;;6.70;99.90;;;;;;4994278;28;20049;-67
2020/12/04 10:21:48;;;;;;;25.70;13.18;;;7.70;99.90;;;;;;4993089;28;20058;-68
2020/12/04 10:24:16;;;;;;;27.50;12.98;;;8.70;99.90;;;;;;4994079;28;20503;-67
2020/12/04 10:26:46;;;;;;;27.35;12.43;;;9.50;99.90;;;;;;4993057;28;20058;-68
2020/12/04 10:29:13;;;;;;;26.35;13.40;;;9.30;99.90;;;;;;4993847;28;20065;-68
2020/12/04 10:31:40;;;;;;;31.10;12.40;;;9.70;99.90;;;;;;4993391;28;20459;-67
2020/12/04 10:34:06;;;;;;;29.27;12.77;;;10.10;99.90;;;;;;4990684;28;20517;-70
2020/12/04 10:36:33;;;;;;;32.05;12.80;;;9.30;99.90;;;;;;4992205;28;20056;-69
2020/12/04 10:39:00;;;;;;;24.40;12.45;;;9.80;99.90;;;;;;4991592;28;20061;-67
2020/12/04 10:41:32;;;;;;;25.27;12.38;;;9.10;99.90;;;;;;4992140;28;20050;-68
2020/12/04 10:43:59;;;;;;;21.10;11.10;;;8.80;99.90;;;;;;4992418;28;20057;-68
2020/12/04 10:46:26;;;;;;;24.60;11.90;;;8.90;99.90;;;;;;4993440;28;20415;-67
2020/12/04 10:48:53;;;;;;;26.75;12.23;;;9.10;99.90;;;;;;4992443;28;20054;-68
2020/12/04 10:51:20;;;;;;;27.35;12.02;;;9.00;99.90;;;;;;4994456;28;20431;-68
2020/12/04 10:53:47;;;;;;;22.40;11.20;;;9.00;99.90;;;;;;4991089;28;20064;-69
2020/12/04 10:56:14;;;;;;;21.00;11.30;;;10.50;99.90;;;;;;4990969;28;20050;-68
2020/12/04 10:58:43;;;;;;;22.55;11.90;;;12.30;99.90;;;;;;4993730;28;20606;-68
2020/12/04 11:01:12;;;;;;;24.42;13.20;;;13.20;98.60;;;;;;4991594;28;20062;-68
2020/12/04 11:05:26;;;;;;;27.90;13.25;;;14.30;95.70;;;;;;4990214;28;20518;-68
2020/12/04 11:06:28;;;;;;;23.35;12.68;;;14.60;91.40;;;;;;4992947;28;20694;-70
2020/12/04 11:08:54;;;;;;;22.75;12.90;;;13.30;92.40;;;;;;4991203;28;20513;-67
2020/12/04 11:11:27;;;;;;;22.95;12.85;;;13.70;92.10;;;;;;4993190;28;20058;-68
2020/12/04 11:13:58;;;;;;;22.23;13.18;;;14.00;91.90;;;;;;4995443;28;20133;-71
2020/12/04 11:16:25;;;;;;;24.92;13.48;;;14.40;90.40;;;;;;4992434;28;20141;-69
2020/12/04 11:18:51;;;;;;;22.25;12.02;;;14.40;89.80;;;;;;4992021;28;20061;-71
2020/12/04 11:21:18;;;;;;;24.73;13.32;;;13.50;89.50;;;;;;4992017;28;20422;-65
2020/12/04 11:23:44;;;;;;;21.88;13.02;;;12.90;89.90;;;;;;4990716;28;20057;-66
2020/12/04 11:26:11;;;;;;;21.95;12.38;;;12.20;90.80;;;;;;4992989;28;20054;-66
2020/12/04 11:28:38;;;;;;;23.45;12.45;;;11.60;91.70;;;;;;4993719;28;20038;-65
2020/12/04 11:31:05;;;;;;;23.23;12.93;;;10.90;92.00;;;;;;4992727;28;20046;-66
2020/12/04 11:33:32;;;;;;;25.98;13.65;;;10.60;93.60;;;;;;4990191;28;20045;-65
2020/12/04 11:35:59;;;;;;;21.90;11.82;;;10.60;94.10;;;;;;4993079;28;20072;-66
2020/12/04 11:38:26;;;;;;;22.80;11.82;;;10.20;94.80;;;;;;4990609;28;20512;-66
2020/12/04 11:40:52;;;;;;;25.40;12.27;;;9.60;97.20;;;;;;4992250;28;20053;-65
2020/12/04 11:43:19;;;;;;;23.40;12.13;;;9.60;96.80;;;;;;4990316;28;20050;-66
2020/12/04 11:45:46;;;;;;;26.23;11.80;;;10.10;97.00;;;;;;4991921;28;20495;-65
2020/12/04 11:48:13;;;;;;;26.90;12.52;;;10.70;96.10;;;;;;4990501;28;20056;-66
2020/12/04 11:50:40;;;;;;;24.40;12.32;;;11.30;95.50;;;;;;4992009;28;20050;-66
2020/12/04 11:53:07;;;;;;;24.02;13.10;;;11.20;96.20;;;;;;4990318;28;20503;-66
2020/12/04 11:55:34;;;;;;;21.20;11.73;;;11.40;97.10;;;;;;4990796;28;20057;-66
2020/12/04 11:58:00;;;;;;;25.05;12.30;;;10.70;96.90;;;;;;4990592;28;20065;-66
2020/12/04 12:00:27;;;;;;;21.58;11.15;;;10.70;96.80;;;;;;4991093;28;20049;-66
2020/12/04 12:02:54;;;;;;;23.83;12.25;;;10.70;97.10;;;;;;4989111;28;20045;-66
2020/12/04 12:05:22;;;;;;;20.95;10.82;;;10.10;97.20;;;;;;4989136;28;20315;-65
2020/12/04 12:07:49;;;;;;;22.05;11.27;;;10.10;97.90;;;;;;4989931;28;20054;-67
2020/12/04 12:10:15;;;;;;;25.40;11.77;;;10.00;98.20;;;;;;4988541;28;20046;-66
2020/12/04 12:12:43;;;;;;;24.10;12.57;;;9.80;98.80;;;;;;4986190;28;20133;-66
2020/12/04 12:15:10;;;;;;;20.00;10.52;;;9.40;99.90;;;;;;4986979;28;20046;-66
2020/12/04 12:17:36;;;;;;;23.15;11.35;;;8.70;99.90;;;;;;4988106;28;20081;-66
2020/12/04 12:20:04;;;;;;;22.15;10.90;;;8.20;99.90;;;;;;4988659;28;20056;-66
2020/12/04 12:22:31;;;;;;;24.80;11.20;;;7.90;99.90;;;;;;4991173;28;20649;-65
2020/12/04 12:24:58;;;;;;;24.00;11.65;;;7.50;99.90;;;;;;4994491;28;20050;-66
2020/12/04 12:27:25;;;;;;;23.02;10.32;;;7.50;99.90;;;;;;4988261;28;20423;-66
2020/12/04 12:30:08;;;;;;;20.85;10.05;;;7.30;99.90;;;;;;4986781;28;20152;-66
2020/12/04 12:32:53;;;;;;;22.55;10.80;;;7.10;99.90;;;;;;4988255;28;20046;-66
2020/12/04 12:35:21;;;;;;;23.60;10.18;;;7.10;99.90;;;;;;4989098;28;20474;-66
2020/12/04 12:37:51;;;;;;;19.80;9.18;;;6.90;99.90;;;;;;4985917;28;20066;-65
2020/12/04 12:40:18;;;;;;;21.83;10.13;;;6.70;99.90;;;;;;4985169;28;20527;-65
2020/12/04 12:42:47;;;;;;;25.52;10.65;;;6.70;99.90;;;;;;4988987;28;20053;-66